createdAt,value
2022-11-22T00:00:53.573Z,96129.00
2022-11-22T00:03:21.431Z,96126.00
2022-11-22T00:05:49.184Z,96121.00
2022-11-22T00:08:16.915Z,96112.00
2022-11-22T00:10:46.025Z,96100.00
2022-11-22T00:13:13.757Z,96096.00
2022-11-22T00:15:41.471Z,96099.00
2022-11-22T00:18:09.528Z,96101.00
2022-11-22T00:20:37.396Z,96096.00
2022-11-22T00:23:05.264Z,96095.00
2022-11-22T00:25:32.998Z,96095.00
2022-11-22T00:28:02.071Z,96093.00
2022-11-22T00:30:29.849Z,96091.00
2022-11-22T00:32:57.681Z,96101.00
2022-11-22T00:35:25.376Z,96101.00
2022-11-22T00:37:53.169Z,96103.00
2022-11-22T00:40:20.882Z,96095.00
2022-11-22T00:42:48.629Z,96076.00
2022-11-22T00:45:17.999Z,96087.00
2022-11-22T00:47:45.846Z,96073.00
2022-11-22T00:50:13.769Z,96074.00
2022-11-22T00:52:41.458Z,96079.00
2022-11-22T00:55:09.513Z,96075.00
2022-11-22T00:57:37.337Z,96082.00
2022-11-22T01:00:07.443Z,96068.00
2022-11-22T01:02:36.455Z,96066.00
2022-11-22T01:05:05.088Z,96064.00
2022-11-22T01:07:32.942Z,96068.00
2022-11-22T01:10:00.766Z,96058.00
2022-11-22T01:12:28.642Z,96062.00
2022-11-22T01:14:56.442Z,96065.00
2022-11-22T01:17:24.178Z,96066.00
2022-11-22T01:19:53.376Z,96073.00
2022-11-22T01:22:21.753Z,96062.00
2022-11-22T01:24:49.544Z,96066.00
2022-11-22T01:27:17.342Z,96066.00
2022-11-22T01:29:45.133Z,96067.00
2022-11-22T01:32:12.957Z,96056.00
2022-11-22T01:34:40.676Z,96059.00
2022-11-22T01:37:09.896Z,96053.00
2022-11-22T01:39:37.728Z,96057.00
2022-11-22T01:42:05.628Z,96053.00
2022-11-22T01:44:34.620Z,96050.00
2022-11-22T01:47:08.437Z,96051.00
2022-11-22T01:49:43.702Z,96047.00
2022-11-22T01:52:17.310Z,96049.00
2022-11-22T01:54:50.825Z,96052.00
2022-11-22T01:57:25.559Z,96045.00
2022-11-22T01:59:59.201Z,96045.00
2022-11-22T02:02:27.146Z,96048.00
2022-11-22T02:04:58.910Z,96048.00
2022-11-22T02:07:36.822Z,96037.00
2022-11-22T02:10:06.025Z,96042.00
2022-11-22T02:12:37.208Z,96040.00
2022-11-22T02:15:07.166Z,96025.00
2022-11-22T02:17:35.212Z,96016.00
2022-11-22T02:20:02.980Z,96016.00
2022-11-22T02:22:42.729Z,96033.00
2022-11-22T02:25:18.743Z,96038.00
2022-11-22T02:27:49.884Z,96048.00
2022-11-22T02:30:18.531Z,96055.00
2022-11-22T02:32:47.001Z,96054.00
2022-11-22T02:35:19.577Z,96066.00
2022-11-22T02:37:50.330Z,96071.00
2022-11-22T02:40:19.046Z,96071.00
2022-11-22T02:42:53.102Z,96070.00
2022-11-22T02:45:20.797Z,96072.00
2022-11-22T02:47:48.507Z,96077.00
2022-11-22T02:50:16.380Z,96071.00
2022-11-22T02:52:44.216Z,96077.00
2022-11-22T02:55:12.226Z,96074.00
2022-11-22T02:57:40.148Z,96069.00
2022-11-22T03:00:11.947Z,96066.00
2022-11-22T03:02:39.677Z,96064.00
2022-11-22T03:05:07.947Z,96062.00
2022-11-22T03:07:35.892Z,96060.00
2022-11-22T03:10:03.876Z,96067.00
2022-11-22T03:12:31.634Z,96071.00
2022-11-22T03:14:59.345Z,96078.00
2022-11-22T03:17:28.688Z,96076.00
2022-11-22T03:19:56.469Z,96081.00
2022-11-22T03:22:24.354Z,96079.00
2022-11-22T03:24:52.145Z,96080.00
2022-11-22T03:27:19.914Z,96087.00
2022-11-22T03:29:47.820Z,96089.00
2022-11-22T03:32:15.544Z,96080.00
2022-11-22T03:34:44.748Z,96079.00
2022-11-22T03:37:12.515Z,96078.00
2022-11-22T03:39:40.203Z,96080.00
2022-11-22T03:42:07.957Z,96083.00
2022-11-22T03:44:35.688Z,96075.00
2022-11-22T03:47:03.411Z,96082.00
2022-11-22T03:49:31.239Z,96073.00
2022-11-22T03:52:00.563Z,96072.00
2022-11-22T03:54:28.414Z,96083.00
2022-11-22T03:56:56.124Z,96076.00
2022-11-22T03:59:23.833Z,96087.00
2022-11-22T04:01:52.186Z,96078.00
2022-11-22T04:04:19.985Z,96086.00
2022-11-22T04:06:47.710Z,96094.00
2022-11-22T04:09:16.909Z,96091.00
2022-11-22T04:11:44.672Z,96101.00
2022-11-22T04:14:30.636Z,96102.00
2022-11-22T04:16:59.029Z,96106.00
2022-11-22T04:19:27.000Z,96105.00
2022-11-22T04:21:53.958Z,96106.00
2022-11-22T04:24:40.565Z,96097.00
2022-11-22T04:27:08.318Z,96105.00
2022-11-22T04:29:36.029Z,96113.00
2022-11-22T04:32:21.346Z,96117.00
2022-11-22T04:34:49.114Z,96121.00
2022-11-22T04:37:16.981Z,96115.00
2022-11-22T04:39:46.038Z,96124.00
2022-11-22T04:42:31.341Z,96117.00
2022-11-22T04:44:59.079Z,96118.00
2022-11-22T04:47:48.999Z,96122.00
2022-11-22T04:50:36.412Z,96121.00
2022-11-22T04:53:04.424Z,96118.00
2022-11-22T04:55:33.548Z,96116.00
2022-11-22T04:58:01.274Z,96113.00
2022-11-22T05:00:30.102Z,96106.00
2022-11-22T05:02:58.967Z,96101.00
2022-11-22T05:05:27.329Z,96107.00
2022-11-22T05:07:55.176Z,96119.00
2022-11-22T05:10:26.739Z,96119.00
2022-11-22T05:12:57.212Z,96117.00
2022-11-22T05:15:25.037Z,96128.00
2022-11-22T05:17:52.817Z,96115.00
2022-11-22T05:20:20.575Z,96113.00
2022-11-22T05:23:05.604Z,96121.00
2022-11-22T05:25:33.346Z,96110.00
2022-11-22T05:28:02.492Z,96116.00
2022-11-22T05:30:30.228Z,96116.00
2022-11-22T05:32:57.927Z,96122.00
2022-11-22T05:35:25.664Z,96126.00
2022-11-22T05:37:53.371Z,96122.00
2022-11-22T05:40:21.206Z,96124.00
2022-11-22T05:42:49.076Z,96129.00
2022-11-22T05:45:18.925Z,96127.00
2022-11-22T05:47:47.370Z,96133.00
2022-11-22T05:50:15.213Z,96130.00
2022-11-22T05:52:43.071Z,96138.00
2022-11-22T05:55:11.104Z,96146.00
2022-11-22T05:57:38.938Z,96139.00
2022-11-22T06:00:08.603Z,96139.00
2022-11-22T06:02:37.809Z,96151.00
2022-11-22T06:05:06.286Z,96152.00
2022-11-22T06:07:34.173Z,96148.00
2022-11-22T06:10:02.010Z,96159.00
2022-11-22T06:12:29.975Z,96153.00
2022-11-22T06:14:57.839Z,96157.00
2022-11-22T06:17:25.722Z,96156.00
2022-11-22T06:19:54.930Z,96158.00
2022-11-22T06:22:22.808Z,96163.00
2022-11-22T06:24:50.639Z,96172.00
2022-11-22T06:27:18.446Z,96168.00
2022-11-22T06:29:46.428Z,96176.00
2022-11-22T06:32:14.436Z,96173.00
2022-11-22T06:34:42.316Z,96174.00
2022-11-22T06:37:11.681Z,96175.00
2022-11-22T06:39:39.507Z,96177.00
2022-11-22T06:42:07.412Z,96172.00
2022-11-22T06:44:35.279Z,96173.00
2022-11-22T06:47:03.075Z,96180.00
2022-11-22T06:49:31.365Z,96182.00
2022-11-22T06:51:59.462Z,96181.00
2022-11-22T06:54:28.633Z,96183.00
2022-11-22T06:56:56.528Z,96185.00
2022-11-22T06:59:24.354Z,96193.00
2022-11-22T07:01:52.264Z,96198.00
2022-11-22T07:04:20.688Z,96199.00
2022-11-22T07:06:48.681Z,96198.00
2022-11-22T07:09:17.441Z,96208.00
2022-11-22T07:11:46.816Z,96208.00
2022-11-22T07:14:14.632Z,96214.00
2022-11-22T07:16:42.508Z,96216.00
2022-11-22T07:19:11.269Z,96231.00
2022-11-22T07:21:39.127Z,96237.00
2022-11-22T07:24:08.682Z,96236.00
2022-11-22T07:26:36.693Z,96241.00
2022-11-22T07:29:05.946Z,96254.00
2022-11-22T07:31:34.892Z,96249.00
2022-11-22T07:34:02.815Z,96249.00
2022-11-22T07:36:30.727Z,96256.00
2022-11-22T07:38:58.667Z,96249.00
2022-11-22T07:41:26.774Z,96255.00
2022-11-22T07:43:55.645Z,96265.00
2022-11-22T07:46:29.743Z,96267.00
2022-11-22T07:48:58.449Z,96263.00
2022-11-22T07:51:27.184Z,96273.00
2022-11-22T07:53:56.677Z,96284.00
2022-11-22T07:56:25.008Z,96290.00
2022-11-22T07:58:52.930Z,96292.00
2022-11-22T08:01:21.745Z,96296.00
2022-11-22T08:03:50.978Z,96305.00
2022-11-22T08:06:18.797Z,96302.00
2022-11-22T08:08:46.615Z,96310.00
2022-11-22T08:11:14.663Z,96308.00
2022-11-22T08:13:43.898Z,96324.00
2022-11-22T08:16:15.716Z,96324.00
2022-11-22T08:18:49.124Z,96318.00
2022-11-22T08:21:20.371Z,96318.00
2022-11-22T08:23:49.734Z,96333.00
2022-11-22T08:26:21.367Z,96330.00
2022-11-22T08:28:49.273Z,96337.00
2022-11-22T08:31:19.994Z,96328.00
2022-11-22T08:33:48.800Z,96334.00
2022-11-22T08:36:18.052Z,96332.00
2022-11-22T08:38:46.149Z,96323.00
2022-11-22T08:41:14.398Z,96325.00
2022-11-22T08:43:42.298Z,96331.00
2022-11-22T08:46:10.674Z,96333.00
2022-11-22T08:48:39.424Z,96333.00
2022-11-22T08:51:09.623Z,96335.00
2022-11-22T08:53:41.755Z,96330.00
2022-11-22T08:56:13.479Z,96324.00
2022-11-22T08:58:42.553Z,96321.00
2022-11-22T09:01:13.409Z,96320.00
2022-11-22T09:03:41.849Z,96327.00
2022-11-22T09:09:35.958Z,96332.00
2022-11-22T09:11:49.851Z,96332.00
2022-11-22T09:14:17.884Z,96335.00
2022-11-22T09:16:45.715Z,96342.00
2022-11-22T09:19:13.579Z,96344.00
2022-11-22T09:21:41.429Z,96350.00
2022-11-22T09:24:10.824Z,96355.00
2022-11-22T09:26:38.816Z,96351.00
2022-11-22T09:29:06.728Z,96340.00
2022-11-22T09:31:35.179Z,96352.00
2022-11-22T09:34:03.046Z,96360.00
2022-11-22T09:36:31.074Z,96354.00
2022-11-22T09:38:59.515Z,96353.00
2022-11-22T09:41:57.680Z,96352.00
2022-11-22T09:44:43.137Z,96364.00
2022-11-22T09:47:26.310Z,96364.00
2022-11-22T09:50:07.511Z,96370.00
2022-11-22T09:52:43.843Z,96370.00
2022-11-22T09:55:24.628Z,96364.00
2022-11-22T09:58:06.984Z,96365.00
2022-11-22T10:00:36.245Z,96373.00
2022-11-22T10:03:15.837Z,96364.00
2022-11-22T10:05:51.973Z,96367.00
2022-11-22T10:08:36.307Z,96364.00
2022-11-22T10:11:12.610Z,96368.00
2022-11-22T10:13:49.454Z,96366.00
2022-11-22T10:16:24.522Z,96367.00
2022-11-22T10:18:59.948Z,96374.00
2022-11-22T10:21:28.353Z,96377.00
2022-11-22T10:23:56.278Z,96384.00
2022-11-22T10:26:28.484Z,96386.00
2022-11-22T10:29:14.162Z,96389.00
2022-11-22T10:31:52.275Z,96386.00
2022-11-22T10:34:30.168Z,96385.00
2022-11-22T10:37:10.248Z,96384.00
2022-11-22T10:40:00.980Z,96386.00
2022-11-22T10:43:13.568Z,96394.00
2022-11-22T10:45:48.367Z,96390.00
2022-11-22T10:48:29.875Z,96395.00
2022-11-22T10:51:10.485Z,96399.00
2022-11-22T10:54:01.905Z,96414.00
2022-11-22T10:56:39.539Z,96396.00
2022-11-22T10:59:32.937Z,96404.00
2022-11-22T11:02:22.030Z,96408.00
2022-11-22T11:04:53.021Z,96403.00
2022-11-22T11:07:23.687Z,96410.00
2022-11-22T11:10:11.458Z,96411.00
2022-11-22T11:12:46.420Z,96400.00
2022-11-22T11:15:22.191Z,96410.00
2022-11-22T11:18:02.039Z,96403.00
2022-11-22T11:20:37.359Z,96398.00
2022-11-22T11:23:20.726Z,96404.00
2022-11-22T11:25:52.336Z,96402.00
2022-11-22T11:28:23.368Z,96403.00
2022-11-22T11:30:55.018Z,96405.00
2022-11-22T11:33:29.090Z,96405.00
2022-11-22T11:36:07.922Z,96404.00
2022-11-22T11:38:39.196Z,96397.00
2022-11-22T11:41:25.402Z,96402.00
2022-11-22T11:43:54.919Z,96391.00
2022-11-22T11:46:24.684Z,96388.00
2022-11-22T11:48:56.070Z,96389.00
2022-11-22T11:51:40.632Z,96391.00
2022-11-22T11:54:15.190Z,96391.00
2022-11-22T11:56:53.319Z,96386.00
2022-11-22T11:59:23.375Z,96383.00
2022-11-22T12:02:02.749Z,96381.00
2022-11-22T12:04:37.159Z,96376.00
2022-11-22T12:07:19.104Z,96379.00
2022-11-22T12:09:49.640Z,96382.00
2022-11-22T12:12:43.544Z,96377.00
2022-11-22T12:15:20.632Z,96370.00
2022-11-22T12:17:57.262Z,96366.00
2022-11-22T12:20:39.642Z,96358.00
2022-11-22T12:23:24.151Z,96346.00
2022-11-22T12:25:57.242Z,96345.00
2022-11-22T12:28:28.691Z,96343.00
2022-11-22T12:31:03.657Z,96334.00
2022-11-22T12:33:38.202Z,96337.00
2022-11-22T12:36:17.213Z,96340.00
2022-11-22T12:38:48.817Z,96328.00
2022-11-22T12:41:21.071Z,96340.00
2022-11-22T12:43:55.804Z,96338.00
2022-11-22T12:46:29.035Z,96345.00
2022-11-22T12:49:03.865Z,96341.00
2022-11-22T12:51:44.765Z,96340.00
2022-11-22T12:54:19.254Z,96338.00
2022-11-22T12:56:54.446Z,96334.00
2022-11-22T12:59:33.508Z,96333.00
2022-11-22T13:02:16.606Z,96338.00
2022-11-22T13:04:54.384Z,96329.00
2022-11-22T13:07:43.943Z,96333.00
2022-11-22T13:10:27.337Z,96332.00
2022-11-22T13:12:58.292Z,96335.00
2022-11-22T13:15:29.850Z,96339.00
2022-11-22T13:17:58.350Z,96347.00
2022-11-22T13:20:31.609Z,96336.00
2022-11-22T13:23:26.367Z,96335.00
2022-11-22T13:26:13.262Z,96330.00
2022-11-22T13:28:44.561Z,96337.00
2022-11-22T13:31:20.321Z,96327.00
2022-11-22T13:33:58.644Z,96332.00
2022-11-22T13:36:41.204Z,96334.00
2022-11-22T13:39:19.236Z,96333.00
2022-11-22T13:42:06.161Z,96335.00
2022-11-22T13:45:13.591Z,96327.00
2022-11-22T13:47:43.845Z,96330.00
2022-11-22T13:51:00.921Z,96334.00
2022-11-22T13:53:33.160Z,96342.00
2022-11-22T13:56:59.511Z,96342.00
2022-11-22T13:59:27.714Z,96341.00
2022-11-22T14:02:00.559Z,96348.00
2022-11-22T14:04:40.736Z,96351.00
2022-11-22T14:07:35.466Z,96347.00
2022-11-22T14:10:24.746Z,96348.00
2022-11-22T14:13:36.893Z,96363.00
2022-11-22T14:16:22.411Z,96354.00
2022-11-22T14:19:04.223Z,96354.00
2022-11-22T14:22:19.956Z,96356.00
2022-11-22T14:25:32.726Z,96371.00
2022-11-22T14:28:22.778Z,96365.00
2022-11-22T14:30:54.041Z,96373.00
2022-11-22T14:33:25.524Z,96369.00
2022-11-22T14:36:17.399Z,96368.00
2022-11-22T14:38:46.017Z,96375.00
2022-11-22T14:41:53.862Z,96371.00
2022-11-22T14:44:28.026Z,96381.00
2022-11-22T14:47:05.530Z,96375.00
2022-11-22T14:49:43.247Z,96370.00
2022-11-22T14:52:22.543Z,96371.00
2022-11-22T14:54:56.930Z,96367.00
2022-11-22T14:57:29.315Z,96369.00
2022-11-22T15:00:18.706Z,96371.00
2022-11-22T15:03:34.595Z,96371.00
2022-11-22T15:09:10.446Z,96381.00
2022-11-22T15:09:48.618Z,96379.00
2022-11-22T15:13:05.905Z,96386.00
2022-11-22T15:57:36.653Z,96434.00
2022-11-22T16:00:12.179Z,96435.00
2022-11-22T16:02:49.865Z,96435.00
2022-11-22T16:06:09.146Z,96425.00
2022-11-22T16:08:19.256Z,96442.00
2022-11-22T16:10:51.992Z,96438.00
2022-11-22T16:13:29.022Z,96446.00
2022-11-22T16:16:21.835Z,96452.00
2022-11-22T16:18:50.863Z,96445.00
2022-11-22T16:21:28.931Z,96446.00
2022-11-22T16:24:18.207Z,96464.00
2022-11-22T16:26:57.169Z,96456.00
2022-11-22T16:29:32.151Z,96456.00
2022-11-22T16:32:02.820Z,96454.00
2022-11-22T16:34:30.646Z,96450.00
2022-11-22T16:36:58.964Z,96450.00
2022-11-22T16:39:29.174Z,96445.00
2022-11-22T16:41:57.380Z,96446.00
2022-11-22T16:44:25.909Z,96441.00
2022-11-22T16:46:53.724Z,96442.00
2022-11-22T16:49:23.763Z,96448.00
2022-11-22T16:51:52.767Z,96447.00
2022-11-22T16:54:23.786Z,96449.00
2022-11-22T16:56:52.952Z,96454.00
2022-11-22T16:59:20.812Z,96446.00
2022-11-22T17:01:48.861Z,96443.00
2022-11-22T17:04:23.597Z,96445.00
2022-11-22T17:06:52.236Z,96444.00
2022-11-22T17:09:20.369Z,96445.00
2022-11-22T17:11:48.712Z,96439.00
2022-11-22T17:14:19.489Z,96452.00
2022-11-22T17:16:47.687Z,96453.00
2022-11-22T17:19:45.697Z,96450.00
2022-11-22T17:22:07.032Z,96455.00
2022-11-22T17:24:35.363Z,96460.00
2022-11-22T17:27:03.198Z,96462.00
2022-11-22T17:29:49.917Z,96463.00
2022-11-22T17:32:18.679Z,96462.00
2022-11-22T17:34:46.612Z,96469.00
2022-11-22T17:37:15.289Z,96470.00
2022-11-22T17:39:43.122Z,96471.00
2022-11-22T17:42:12.052Z,96475.00
2022-11-22T17:44:41.280Z,96480.00
2022-11-22T17:47:09.149Z,96480.00
2022-11-22T17:49:37.123Z,96480.00
2022-11-22T17:52:04.956Z,96485.00
2022-11-22T17:54:32.807Z,96487.00
2022-11-22T17:57:00.669Z,96495.00
2022-11-22T17:59:28.588Z,96502.00
2022-11-22T18:01:58.626Z,96503.00
2022-11-22T18:04:26.411Z,96503.00
2022-11-22T18:06:54.306Z,96509.00
2022-11-22T18:09:22.097Z,96507.00
2022-11-22T18:11:50.046Z,96500.00
2022-11-22T18:14:18.322Z,96512.00
2022-11-22T18:16:46.189Z,96514.00
2022-11-22T18:19:15.441Z,96512.00
2022-11-22T18:21:43.422Z,96518.00
2022-11-22T18:24:12.180Z,96513.00
2022-11-22T18:26:40.998Z,96515.00
2022-11-22T18:31:59.920Z,96519.00
2022-11-22T18:34:30.170Z,96513.00
2022-11-22T18:37:03.459Z,96523.00
2022-11-22T18:39:34.769Z,96530.00
2022-11-22T18:42:03.652Z,96530.00
2022-11-22T18:44:31.549Z,96526.00
2022-11-22T18:46:59.366Z,96534.00
2022-11-22T18:49:27.301Z,96536.00
2022-11-22T18:51:56.614Z,96535.00
2022-11-22T18:54:24.692Z,96532.00
2022-11-22T18:56:53.086Z,96532.00
2022-11-22T18:59:20.978Z,96541.00
2022-11-22T19:01:48.965Z,96538.00
2022-11-22T19:04:17.191Z,96540.00
2022-11-22T19:06:45.957Z,96545.00
2022-11-22T19:09:15.318Z,96545.00
2022-11-22T19:11:43.200Z,96538.00
2022-11-22T19:14:11.335Z,96541.00
2022-11-22T19:16:39.234Z,96537.00
2022-11-22T19:19:08.390Z,96540.00
2022-11-22T19:21:36.252Z,96539.00
2022-11-22T19:24:04.499Z,96540.00
2022-11-22T19:26:33.700Z,96528.00
2022-11-22T19:29:02.649Z,96527.00
2022-11-22T19:31:31.332Z,96527.00
2022-11-22T19:34:00.275Z,96527.00
2022-11-22T19:36:33.732Z,96528.00
2022-11-22T19:39:04.246Z,96530.00
2022-11-22T19:41:33.820Z,96531.00
2022-11-22T19:44:01.799Z,96538.00
2022-11-22T19:46:30.180Z,96543.00
2022-11-22T19:49:01.075Z,96540.00
2022-11-22T19:51:30.826Z,96546.00
2022-11-22T19:54:02.070Z,96550.00
2022-11-22T19:56:33.560Z,96553.00
2022-11-22T19:59:03.969Z,96545.00
2022-11-22T20:01:33.983Z,96551.00
2022-11-22T20:04:04.471Z,96548.00
2022-11-22T20:06:34.067Z,96543.00
2022-11-22T20:09:03.972Z,96551.00
2022-11-22T20:11:33.321Z,96558.00
2022-11-22T20:14:01.216Z,96556.00
2022-11-22T20:16:31.712Z,96560.00
2022-11-22T20:19:02.227Z,96564.00
2022-11-22T20:21:32.799Z,96570.00
2022-11-22T20:24:02.347Z,96573.00
2022-11-22T20:26:33.660Z,96577.00
2022-11-22T20:29:03.695Z,96582.00
2022-11-22T20:31:33.053Z,96580.00
2022-11-22T20:34:02.107Z,96584.00
2022-11-22T20:36:32.474Z,96599.00
2022-11-22T20:39:05.605Z,96597.00
2022-11-22T20:41:38.146Z,96587.00
2022-11-22T20:44:06.486Z,96599.00
2022-11-22T20:46:38.378Z,96600.00
2022-11-22T20:49:06.243Z,96598.00
2022-11-22T20:51:35.883Z,96591.00
2022-11-22T20:54:03.897Z,96596.00
2022-11-22T20:56:31.772Z,96593.00
2022-11-22T20:59:01.246Z,96587.00
2022-11-22T21:01:32.228Z,96578.00
2022-11-22T21:04:00.091Z,96584.00
2022-11-22T21:06:28.857Z,96586.00
2022-11-22T21:08:56.864Z,96581.00
2022-11-22T21:11:28.511Z,96590.00
2022-11-22T21:13:57.839Z,96596.00
2022-11-22T21:16:29.611Z,96586.00
2022-11-22T21:19:00.933Z,96592.00
2022-11-22T21:21:30.014Z,96593.00
2022-11-22T21:24:01.909Z,96597.00
2022-11-22T21:26:30.622Z,96594.00
2022-11-22T21:29:00.427Z,96594.00
2022-11-22T21:31:29.583Z,96596.00
2022-11-22T21:33:57.993Z,96593.00
2022-11-22T21:36:26.337Z,96595.00
2022-11-22T21:38:54.359Z,96602.00
2022-11-22T21:41:40.306Z,96607.00
2022-11-22T21:44:09.488Z,96603.00
2022-11-22T21:46:38.949Z,96606.00
2022-11-22T21:49:13.684Z,96602.00
2022-11-22T21:51:41.712Z,96609.00
2022-11-22T21:54:10.115Z,96608.00
2022-11-22T21:56:38.413Z,96604.00
2022-11-22T21:59:06.839Z,96611.00
2022-11-22T22:01:34.975Z,96613.00
2022-11-22T22:04:07.905Z,96614.00
2022-11-22T22:06:36.026Z,96613.00
2022-11-22T22:09:04.203Z,96618.00
2022-11-22T22:11:32.218Z,96619.00
2022-11-22T22:14:00.166Z,96606.00
2022-11-22T22:16:28.014Z,96614.00
2022-11-22T22:18:55.931Z,96616.00
2022-11-22T22:21:25.137Z,96621.00
2022-11-22T22:23:53.463Z,96628.00
2022-11-22T22:26:21.392Z,96614.00
2022-11-22T22:28:49.780Z,96616.00
2022-11-22T22:31:21.893Z,96628.00
2022-11-22T22:33:52.075Z,96625.00
2022-11-22T22:36:20.121Z,96622.00
2022-11-22T22:38:49.606Z,96619.00
2022-11-22T22:41:18.098Z,96633.00
2022-11-22T22:43:49.832Z,96629.00
2022-11-22T22:46:20.565Z,96638.00
2022-11-22T22:48:50.052Z,96629.00
2022-11-22T22:51:21.061Z,96627.00
2022-11-22T22:53:51.466Z,96635.00
2022-11-22T22:56:22.316Z,96636.00
2022-11-22T22:58:54.682Z,96642.00
2022-11-22T23:01:25.004Z,96641.00
2022-11-22T23:03:55.074Z,96647.00
2022-11-22T23:06:24.324Z,96642.00
2022-11-22T23:08:55.604Z,96648.00
2022-11-22T23:11:46.903Z,96641.00
2022-11-22T23:14:18.780Z,96640.00
2022-11-22T23:16:46.968Z,96643.00
2022-11-22T23:19:15.068Z,96648.00
2022-11-22T23:21:42.921Z,96644.00
2022-11-22T23:24:12.851Z,96652.00
2022-11-22T23:26:41.055Z,96654.00
2022-11-22T23:29:09.018Z,96654.00
2022-11-22T23:31:36.890Z,96651.00
2022-11-22T23:34:04.896Z,96653.00
2022-11-22T23:36:35.944Z,96655.00
2022-11-22T23:39:06.985Z,96660.00
2022-11-22T23:41:36.420Z,96657.00
2022-11-22T23:44:05.139Z,96657.00
2022-11-22T23:46:33.364Z,96651.00
2022-11-22T23:49:03.230Z,96663.00
2022-11-22T23:51:33.665Z,96669.00
2022-11-22T23:54:03.641Z,96665.00
2022-11-22T23:56:33.385Z,96672.00
2022-11-22T23:59:05.008Z,96670.00
